Time;durP1;ratioP1;P1;durP2;ratioP2;P2;SDS_P1;SDS_P2;PMS_P1;PMS_P2;Temp;Humidity;BMP_temperature;BMP_pressure;BME280_temperature;BME280_humidity;BME280_pressure;Samples;Min_cycle;Max_cycle;Signal;HPM_P1;HPM_P2
2021/12/04 00:01:11;;;;;;;;;12.00;10.67;;;;;20.83;45.79;99793.56;106749;1301;18413;-87
2021/12/04 00:03:47;;;;;;;;;11.00;11.00;;;;;20.82;45.89;99793.44;106613;1308;19085;-86
2021/12/04 00:06:19;;;;;;;;;13.33;12.00;;;;;20.83;45.88;99795.23;106824;1304;19396;-86
2021/12/04 00:08:48;;;;;;;;;10.67;10.00;;;;;20.84;45.59;99794.15;106761;1305;18351;-86
2021/12/04 00:11:19;;;;;;;;;10.67;10.67;;;;;20.83;45.62;99788.33;106784;1302;19716;-86
2021/12/04 00:13:47;;;;;;;;;9.00;9.00;;;;;20.83;45.52;99789.96;106785;1301;18999;-87
2021/12/04 00:16:16;;;;;;;;;12.00;10.00;;;;;20.81;45.71;99790.31;106848;1301;19041;-87
2021/12/04 00:18:46;;;;;;;;;10.00;9.00;;;;;20.81;45.58;99790.56;106803;1308;19282;-86
2021/12/04 00:21:13;;;;;;;;;12.00;10.00;;;;;20.78;45.79;99781.59;106788;1301;18825;-86
2021/12/04 00:23:43;;;;;;;;;10.33;9.00;;;;;20.79;45.71;99775.02;106752;1306;19026;-86
2021/12/04 00:26:11;;;;;;;;;10.50;8.50;;;;;20.78;45.66;99765.13;106797;1300;19069;-87
2021/12/04 00:28:39;;;;;;;;;13.33;12.00;;;;;20.78;45.80;99767.09;106743;1301;20877;-87
2021/12/04 00:31:12;;;;;;;;;9.67;9.00;;;;;20.79;45.55;99768.23;106807;1301;22117;-87
2021/12/04 00:33:44;;;;;;;;;8.00;8.00;;;;;20.79;45.59;99757.96;106716;1301;19040;-86
2021/12/04 00:36:25;;;;;;;;;9.33;9.00;;;;;20.78;45.68;99756.41;106743;1300;18575;-87
2021/12/04 00:49:56;;;;;;;;;12.00;9.00;;;;;20.79;45.60;99749.50;106130;1307;19214;-84
2021/12/04 00:52:24;;;;;;;;;9.00;9.00;;;;;20.79;45.67;99750.97;106237;1307;19149;-85
2021/12/04 00:54:52;;;;;;;;;9.33;8.33;;;;;20.78;45.51;99751.72;106218;1307;19606;-85
2021/12/04 00:57:21;;;;;;;;;10.00;9.00;;;;;20.78;45.60;99752.98;106236;1310;19033;-84
2021/12/04 00:59:53;;;;;;;;;12.00;9.00;;;;;20.77;45.56;99749.04;106254;1310;18516;-85
2021/12/04 01:02:24;;;;;;;;;9.00;9.00;;;;;20.76;45.62;99748.69;106175;1308;21279;-84
2021/12/04 01:04:54;;;;;;;;;11.33;10.00;;;;;20.76;45.50;99747.05;106084;1307;19197;-85
2021/12/04 01:07:25;;;;;;;;;8.00;8.00;;;;;20.75;45.34;99746.94;106093;1307;18924;-85
2021/12/04 01:09:52;;;;;;;;;10.50;9.00;;;;;20.76;45.46;99744.00;106283;1307;18741;-85
2021/12/04 01:12:21;;;;;;;;;9.00;9.00;;;;;20.76;45.51;99739.73;106324;1306;19392;-85
2021/12/04 01:14:51;;;;;;;;;9.67;9.33;;;;;20.75;45.62;99737.88;106355;1306;19522;-85
2021/12/04 01:17:20;;;;;;;;;10.00;10.00;;;;;20.75;45.33;99733.90;106255;1310;18060;-85
2021/12/04 01:19:51;;;;;;;;;9.00;8.00;;;;;20.77;45.24;99736.55;106236;1309;19507;-85
2021/12/04 01:22:22;;;;;;;;;9.67;9.00;;;;;20.76;45.34;99732.61;106553;1300;21504;-85
2021/12/04 01:24:51;;;;;;;;;8.00;8.00;;;;;20.76;45.19;99730.48;106865;1301;21732;-85
2021/12/04 01:27:20;;;;;;;;;9.67;9.00;;;;;20.72;45.25;99720.35;106793;1301;19614;-87
2021/12/04 01:29:48;;;;;;;;;9.67;9.00;;;;;20.74;45.37;99722.45;106726;1301;20820;-86
2021/12/04 01:32:16;;;;;;;;;10.00;8.67;;;;;20.72;45.26;99725.92;106723;1300;22115;-86
2021/12/04 01:34:45;;;;;;;;;5.67;5.67;;;;;20.72;45.40;99722.20;106804;1300;19223;-86
2021/12/04 01:37:14;;;;;;;;;8.67;8.00;;;;;20.72;45.36;99722.02;106592;1305;18936;-86
2021/12/04 01:39:41;;;;;;;;;9.00;9.00;;;;;20.71;45.36;99719.94;106721;1301;18483;-85
2021/12/04 01:42:11;;;;;;;;;7.33;6.67;;;;;20.72;45.36;99715.41;106797;1301;20768;-86
2021/12/04 01:44:38;;;;;;;;;8.00;8.00;;;;;20.72;45.26;99718.04;106758;1304;19461;-85
2021/12/04 01:47:06;;;;;;;;;9.33;8.33;;;;;20.70;45.30;99717.87;106728;1301;19802;-85
2021/12/04 01:49:35;;;;;;;;;9.00;8.50;;;;;20.70;45.30;99717.37;106724;1301;19418;-85
2021/12/04 01:52:02;;;;;;;;;8.33;8.00;;;;;20.69;45.41;99714.57;106812;1301;18505;-86
2021/12/04 01:54:31;;;;;;;;;6.00;6.00;;;;;20.70;45.22;99710.45;106830;1301;18535;-85
2021/12/04 01:57:01;;;;;;;;;7.00;6.00;;;;;20.71;45.36;99716.20;106817;1301;21610;-86
2021/12/04 01:59:30;;;;;;;;;8.00;6.00;;;;;20.72;45.08;99713.23;106941;1304;18520;-86
2021/12/04 02:02:01;;;;;;;;;8.00;8.00;;;;;20.72;45.13;99712.89;107139;1304;18676;-87
2021/12/04 02:04:31;;;;;;;;;9.00;9.00;;;;;20.73;45.12;99712.27;107730;1301;18967;-86
2021/12/04 02:07:02;;;;;;;;;9.00;9.00;;;;;20.74;44.98;99712.23;107139;1302;19259;-86
2021/12/04 02:09:32;;;;;;;;;8.67;8.00;;;;;20.73;45.12;99710.64;106597;1304;19012;-85
2021/12/04 02:12:03;;;;;;;;;9.00;8.00;;;;;20.73;45.07;99705.56;106627;1304;19268;-85
2021/12/04 02:14:35;;;;;;;;;9.33;9.00;;;;;20.73;45.14;99702.26;106769;1301;21464;-86
2021/12/04 02:17:02;;;;;;;;;6.00;6.00;;;;;20.71;45.02;99700.86;106790;1304;18850;-86
2021/12/04 02:19:32;;;;;;;;;9.00;8.50;;;;;20.72;45.14;99699.90;106769;1309;18858;-86
2021/12/04 02:22:01;;;;;;;;;9.67;8.67;;;;;20.71;45.18;99696.42;107082;1301;22275;-86
2021/12/04 02:24:29;;;;;;;;;9.00;8.00;;;;;20.70;45.15;99687.20;106834;1301;22216;-86
2021/12/04 02:26:57;;;;;;;;;6.67;6.67;;;;;20.72;44.99;99690.56;106834;1301;18991;-85
2021/12/04 02:29:29;;;;;;;;;8.00;8.00;;;;;20.72;45.08;99693.08;106806;1301;19105;-85
2021/12/04 02:31:59;;;;;;;;;9.50;9.00;;;;;20.71;44.99;99693.08;106816;1301;18118;-84
2021/12/04 02:34:29;;;;;;;;;8.00;8.00;;;;;20.69;45.07;99690.30;106806;1301;20046;-86
2021/12/04 02:36:58;;;;;;;;;7.33;6.00;;;;;20.69;45.14;99689.67;106834;1301;18756;-86
2021/12/04 02:39:31;;;;;;;;;6.00;6.00;;;;;20.70;45.01;99689.42;106704;1305;19009;-86
2021/12/04 02:41:59;;;;;;;;;8.00;5.67;;;;;20.69;44.99;99686.10;106527;1304;19295;-86
2021/12/04 02:44:28;;;;;;;;;8.00;6.00;;;;;20.68;45.08;99686.98;106735;1306;19010;-86
2021/12/04 02:46:56;;;;;;;;;8.00;8.00;;;;;20.68;45.12;99680.36;106760;1304;19393;-85
2021/12/04 02:49:25;;;;;;;;;6.00;6.00;;;;;20.68;45.06;99681.66;106593;1305;19087;-86
2021/12/04 02:51:55;;;;;;;;;9.00;6.00;;;;;20.68;45.09;99679.34;106704;1309;18834;-86
2021/12/04 02:54:25;;;;;;;;;8.67;7.33;;;;;20.68;45.04;99680.05;106698;1301;19171;-85
2021/12/04 02:56:54;;;;;;;;;6.67;6.67;;;;;20.67;45.20;99674.88;106698;1300;19773;-86
2021/12/04 02:59:23;;;;;;;;;6.00;6.00;;;;;20.66;44.97;99662.55;106776;1300;18899;-86
2021/12/04 03:01:55;;;;;;;;;5.67;5.67;;;;;20.68;45.00;99660.12;106724;1308;18216;-86
2021/12/04 03:04:28;;;;;;;;;6.67;6.00;;;;;20.67;44.98;99656.65;106709;1304;19280;-85
2021/12/04 03:06:55;;;;;;;;;6.67;6.00;;;;;20.67;45.06;99649.70;106717;1305;18512;-86
2021/12/04 03:09:24;;;;;;;;;8.00;6.00;;;;;20.66;44.99;99652.55;106829;1304;21638;-86
2021/12/04 03:11:52;;;;;;;;;6.00;5.00;;;;;20.67;45.07;99648.94;106848;1301;18873;-86
2021/12/04 03:14:22;;;;;;;;;8.00;8.00;;;;;20.66;44.83;99646.77;106806;1304;19086;-88
2021/12/04 03:16:49;;;;;;;;;5.67;5.67;;;;;20.66;44.89;99645.42;106686;1301;21845;-86
2021/12/04 03:19:18;;;;;;;;;7.33;6.67;;;;;20.67;44.96;99638.64;106755;1304;18979;-87
2021/12/04 03:21:46;;;;;;;;;6.00;6.00;;;;;20.66;44.90;99637.26;106753;1300;19395;-86
2021/12/04 03:24:17;;;;;;;;;8.00;6.00;;;;;20.67;44.92;99635.20;107084;1300;22174;-86
2021/12/04 03:26:47;;;;;;;;;5.67;5.67;;;;;20.67;44.87;99634.02;106861;1304;20888;-86
2021/12/04 03:29:18;;;;;;;;;7.00;7.00;;;;;20.67;44.95;99622.84;106675;1301;18691;-87
2021/12/04 03:32:09;;;;;;;;;8.00;8.00;;;;;20.67;44.95;99620.16;106851;1304;18259;-87
2021/12/04 03:40:24;;;;;;;;;6.00;6.00;;;;;20.65;44.98;99618.70;106734;1301;21382;-86
2021/12/04 03:42:53;;;;;;;;;7.33;7.33;;;;;20.64;45.04;99613.43;106675;1309;18894;-86
2021/12/04 03:45:22;;;;;;;;;8.00;7.33;;;;;20.65;44.92;99618.07;106721;1299;22168;-86
2021/12/04 03:48:02;;;;;;;;;6.00;6.00;;;;;20.63;44.89;99609.68;106623;1303;18710;-86
2021/12/04 03:50:34;;;;;;;;;6.00;6.00;;;;;20.64;45.09;99605.59;106623;1304;19345;-86
2021/12/04 03:53:03;;;;;;;;;7.33;6.00;;;;;20.65;44.93;99605.47;106765;1304;18869;-86
2021/12/04 03:55:32;;;;;;;;;8.00;8.00;;;;;20.63;45.05;99595.91;106630;1304;18866;-86
2021/12/04 03:58:01;;;;;;;;;8.00;8.00;;;;;20.64;44.84;99594.92;106793;1308;21415;-87
2021/12/04 04:00:31;;;;;;;;;7.33;6.00;;;;;20.64;44.87;99596.37;106737;1304;19284;-86
2021/12/04 04:03:00;;;;;;;;;8.00;8.00;;;;;20.64;44.92;99593.85;106808;1300;18243;-86
2021/12/04 04:05:28;;;;;;;;;8.33;6.67;;;;;20.66;44.92;99594.48;106884;1301;19000;-86
2021/12/04 04:07:57;;;;;;;;;8.00;6.00;;;;;20.66;44.82;99594.08;107146;1304;19085;-87
2021/12/04 04:10:30;;;;;;;;;7.33;6.33;;;;;20.66;44.81;99593.40;106709;1300;18169;-87
2021/12/04 04:12:57;;;;;;;;;5.33;5.33;;;;;20.66;44.86;99591.81;106784;1308;18799;-85
2021/12/04 04:15:26;;;;;;;;;4.33;4.33;;;;;20.67;44.95;99590.77;106810;1301;18859;-86
2021/12/04 04:17:59;;;;;;;;;7.00;5.00;;;;;20.66;44.88;99588.13;106788;1300;20334;-86
2021/12/04 04:20:29;;;;;;;;;6.00;6.00;;;;;20.65;44.77;99587.00;106799;1301;20938;-86
2021/12/04 04:22:57;;;;;;;;;6.00;6.00;;;;;20.64;44.79;99585.86;106833;1300;18708;-86
2021/12/04 04:25:25;;;;;;;;;8.00;6.00;;;;;20.64;44.85;99587.83;106788;1301;18154;-86
2021/12/04 04:27:53;;;;;;;;;5.00;5.00;;;;;20.65;44.88;99583.35;106740;1305;19223;-86
2021/12/04 04:30:22;;;;;;;;;8.33;6.67;;;;;20.63;44.90;99581.65;106780;1304;18539;-86
2021/12/04 04:32:51;;;;;;;;;6.00;5.00;;;;;20.63;44.86;99577.45;106738;1301;18171;-86
2021/12/04 04:35:20;;;;;;;;;6.00;5.00;;;;;20.63;44.89;99569.39;106807;1300;18787;-85
2021/12/04 04:37:54;;;;;;;;;6.00;5.00;;;;;20.63;44.88;99569.88;106753;1301;18666;-86
2021/12/04 05:00:25;;;;;;;;;8.00;6.00;;;;;20.62;44.89;99538.55;106780;1302;21401;-86
2021/12/04 05:11:35;;;;;;;;;6.00;6.00;;;;;20.63;44.98;99549.02;106027;1310;18879;-86
2021/12/04 05:14:06;;;;;;;;;6.00;6.00;;;;;20.62;44.83;99548.70;106107;1307;18653;-85
2021/12/04 05:16:45;;;;;;;;;6.00;5.67;;;;;20.62;44.95;99545.89;106097;1306;19562;-86
2021/12/04 05:19:27;;;;;;;;;9.00;8.50;;;;;20.64;44.73;99550.58;106221;1307;18971;-86
2021/12/04 05:21:55;;;;;;;;;6.00;6.00;;;;;20.64;44.77;99553.31;105862;1315;18266;-85
2021/12/04 05:24:32;;;;;;;;;8.00;6.00;;;;;20.63;44.82;99549.49;106056;1310;19003;-85
2021/12/04 05:27:01;;;;;;;;;8.00;6.00;;;;;20.62;44.85;99543.58;106000;1307;18610;-85
2021/12/04 05:29:29;;;;;;;;;6.00;6.00;;;;;20.61;44.80;99540.35;105889;1313;18784;-86
2021/12/04 05:31:58;;;;;;;;;6.67;6.00;;;;;20.61;44.91;99541.40;106078;1306;19169;-86
2021/12/04 05:34:26;;;;;;;;;8.00;5.67;;;;;20.61;44.79;99543.55;105891;1307;18503;-86
2021/12/04 05:36:54;;;;;;;;;5.67;5.00;;;;;20.61;44.83;99545.01;106076;1306;18292;-86
2021/12/04 05:39:22;;;;;;;;;6.00;5.00;;;;;20.60;44.94;99550.12;106073;1309;19099;-87
2021/12/04 05:41:52;;;;;;;;;6.00;6.00;;;;;20.60;44.96;99548.45;106089;1310;19098;-86
2021/12/04 05:44:26;;;;;;;;;6.00;6.00;;;;;20.61;44.91;99548.19;106145;1307;19086;-86
2021/12/04 05:46:59;;;;;;;;;8.00;5.33;;;;;20.62;44.79;99543.55;106709;1301;18896;-86
2021/12/04 05:49:55;;;;;;;;;5.00;5.00;;;;;20.60;44.94;99545.77;106642;1304;18953;-86
2021/12/04 05:52:38;;;;;;;;;5.00;5.00;;;;;20.60;44.83;99551.58;107304;1303;18173;-87
2021/12/04 05:55:12;;;;;;;;;7.00;7.00;;;;;20.60;44.95;99551.79;106773;1301;21391;-86
2021/12/04 05:57:40;;;;;;;;;6.67;6.00;;;;;20.62;44.85;99556.77;106802;1300;19313;-85
2021/12/04 06:00:12;;;;;;;;;5.33;5.33;;;;;20.61;44.92;99555.73;106759;1304;18218;-86
2021/12/04 06:02:41;;;;;;;;;6.00;6.00;;;;;20.62;44.89;99556.48;106629;1304;19963;-85
2021/12/04 06:05:09;;;;;;;;;5.00;5.00;;;;;20.62;45.04;99551.84;106680;1301;18615;-86
2021/12/04 06:07:41;;;;;;;;;6.00;5.50;;;;;20.62;44.91;99548.57;106704;1300;18554;-86
2021/12/04 06:10:11;;;;;;;;;5.00;5.00;;;;;20.61;44.99;99552.25;106752;1301;19342;-86
2021/12/04 06:12:40;;;;;;;;;7.00;6.00;;;;;20.61;45.01;99549.78;106874;1306;18860;-86
2021/12/04 06:15:12;;;;;;;;;5.00;5.00;;;;;20.61;44.93;99549.36;106945;1301;18238;-86
2021/12/04 06:17:41;;;;;;;;;5.00;5.00;;;;;20.62;44.90;99552.41;106758;1301;19460;-86
2021/12/04 06:22:54;;;;;;;;;6.00;5.00;;;;;20.61;44.95;99552.38;106690;1301;18229;-86
2021/12/04 06:25:24;;;;;;;;;6.67;6.00;;;;;20.61;44.90;99554.34;106718;1304;19048;-86
2021/12/04 06:27:56;;;;;;;;;5.00;5.00;;;;;20.59;44.83;99554.34;106706;1304;18798;-85
2021/12/04 06:30:24;;;;;;;;;7.50;5.75;;;;;20.59;44.83;99563.23;102984;1301;5049882;-85
2021/12/04 06:32:53;;;;;;;;;5.67;5.33;;;;;20.60;44.92;99567.16;106691;1304;18892;-86
2021/12/04 06:35:21;;;;;;;;;5.00;5.00;;;;;20.61;44.91;99567.41;106749;1304;18685;-86
2021/12/04 06:37:52;;;;;;;;;5.67;5.00;;;;;20.61;44.94;99568.80;106786;1301;18114;-85
2021/12/04 06:40:26;;;;;;;;;5.00;5.00;;;;;20.61;44.92;99565.41;106746;1301;19509;-85
2021/12/04 06:42:56;;;;;;;;;5.67;5.33;;;;;20.61;45.03;99569.42;106716;1301;19060;-85
2021/12/04 06:45:25;;;;;;;;;5.00;5.00;;;;;20.60;44.98;99571.64;106780;1301;18231;-86
2021/12/04 06:47:58;;;;;;;;;5.00;5.00;;;;;20.61;44.92;99575.04;106757;1303;19354;-86
2021/12/04 06:50:35;;;;;;;;;4.67;4.00;;;;;20.61;44.85;99572.85;106802;1300;18883;-86
2021/12/04 06:53:10;;;;;;;;;8.00;6.00;;;;;20.61;44.98;99564.33;106788;1300;19115;-85
2021/12/04 06:55:42;;;;;;;;;6.00;6.00;;;;;20.61;45.05;99562.52;106770;1301;18910;-86
2021/12/04 06:58:11;;;;;;;;;6.00;6.00;;;;;20.63;45.05;99566.41;106724;1301;18690;-86
2021/12/04 07:00:43;;;;;;;;;8.00;6.00;;;;;20.61;44.96;99570.30;106723;1301;18524;-85
2021/12/04 07:03:12;;;;;;;;;5.67;5.67;;;;;20.63;45.09;99571.31;106726;1303;18954;-86
2021/12/04 07:05:41;;;;;;;;;6.00;6.00;;;;;20.70;45.03;99571.39;106821;1301;18529;-86
2021/12/04 07:08:09;;;;;;;;;5.00;5.00;;;;;20.74;44.90;99571.73;106962;1300;22150;-87
2021/12/04 07:10:39;;;;;;;;;5.50;5.00;;;;;20.75;44.88;99565.52;106784;1303;19254;-86
2021/12/04 07:13:12;;;;;;;;;8.33;6.00;;;;;20.76;44.84;99560.02;106832;1305;18525;-85
2021/12/04 07:15:41;;;;;;;;;5.67;5.00;;;;;20.77;44.94;99561.69;106728;1303;18652;-85
2021/12/04 07:18:10;;;;;;;;;6.00;6.00;;;;;20.77;45.24;99565.67;106760;1303;19175;-87
2021/12/04 07:20:41;;;;;;;;;5.50;5.50;;;;;20.77;45.78;99567.72;106803;1301;19119;-84
2021/12/04 07:23:09;;;;;;;;;5.50;5.00;;;;;20.75;46.04;99563.11;106832;1301;19177;-84
2021/12/04 07:25:38;;;;;;;;;4.00;4.00;;;;;20.78;46.52;99561.39;106616;1301;19506;-86
2021/12/04 07:28:10;;;;;;;;;6.00;5.33;;;;;20.81;46.71;99560.15;106871;1301;19387;-83
2021/12/04 07:30:38;;;;;;;;;5.00;5.00;;;;;20.85;46.86;99561.91;106960;1301;18596;-84
2021/12/04 07:33:06;;;;;;;;;6.00;6.00;;;;;20.87;47.02;99558.04;106806;1304;19700;-84
2021/12/04 07:35:59;;;;;;;;;5.50;5.50;;;;;20.87;47.28;99560.28;106644;1303;19448;-84
2021/12/04 07:38:26;;;;;;;;;6.67;5.67;;;;;20.86;47.63;99555.08;106667;1301;18049;-84
2021/12/04 07:41:04;;;;;;;;;8.00;6.00;;;;;20.87;47.34;99554.63;106840;1301;22285;-84
2021/12/04 07:43:40;;;;;;;;;5.00;5.00;;;;;20.86;47.55;99551.52;106885;1304;19123;-85
2021/12/04 07:46:15;;;;;;;;;5.00;4.50;;;;;20.83;47.74;99547.66;106729;1301;18743;-84
2021/12/04 07:48:45;;;;;;;;;6.00;6.00;;;;;20.78;47.68;99545.55;106826;1304;19554;-84
2021/12/04 07:51:13;;;;;;;;;5.00;5.00;;;;;20.76;47.74;99545.25;106810;1301;22201;-84
2021/12/04 07:53:46;;;;;;;;;6.00;5.00;;;;;20.74;47.77;99550.19;106760;1300;18401;-84
2021/12/04 07:56:34;;;;;;;;;8.33;8.00;;;;;20.73;47.82;99550.94;106687;1301;21434;-84
2021/12/04 07:59:03;;;;;;;;;6.00;6.00;;;;;20.73;47.79;99550.73;106735;1301;22079;-84
2021/12/04 08:01:31;;;;;;;;;6.00;5.00;;;;;20.76;47.56;99552.60;106857;1301;18532;-85
2021/12/04 08:03:59;;;;;;;;;5.00;5.00;;;;;20.79;47.88;99555.66;106775;1302;18915;-84
2021/12/04 08:06:32;;;;;;;;;7.33;7.33;;;;;20.83;47.90;99554.08;106736;1305;18579;-84
2021/12/04 08:09:02;;;;;;;;;5.00;5.00;;;;;20.84;48.06;99555.70;106785;1301;18143;-84
2021/12/04 08:11:30;;;;;;;;;9.00;6.00;;;;;20.85;48.18;99554.28;106873;1300;18918;-84
2021/12/04 08:13:57;;;;;;;;;5.00;5.00;;;;;20.84;48.28;99563.21;106750;1304;22091;-85
2021/12/04 08:16:25;;;;;;;;;5.67;5.67;;;;;20.83;48.04;99566.73;106959;1301;18788;-86
2021/12/04 08:18:55;;;;;;;;;8.33;8.33;;;;;20.82;48.16;99569.08;107113;1301;18892;-85
2021/12/04 08:21:23;;;;;;;;;6.00;6.00;;;;;20.81;48.00;99568.98;107057;1304;18731;-86
2021/12/04 08:23:51;;;;;;;;;9.00;8.33;;;;;20.80;48.03;99567.92;106901;1302;19329;-85
2021/12/04 08:26:19;;;;;;;;;6.00;5.50;;;;;20.78;47.99;99565.16;106806;1299;22288;-84
2021/12/04 08:28:47;;;;;;;;;8.00;8.00;;;;;20.77;47.77;99561.48;106851;1301;18869;-85
2021/12/04 08:31:18;;;;;;;;;6.00;6.00;;;;;20.77;47.94;99559.39;106853;1304;18414;-85
2021/12/04 08:33:46;;;;;;;;;5.33;5.33;;;;;20.75;47.81;99563.60;106852;1300;19525;-86
2021/12/04 08:36:14;;;;;;;;;5.00;5.00;;;;;20.75;47.84;99561.34;106972;1301;18471;-85
2021/12/04 08:38:46;;;;;;;;;6.00;6.00;;;;;20.75;47.79;99561.63;106891;1301;18985;-84
2021/12/04 08:41:17;;;;;;;;;6.67;6.67;;;;;20.75;47.85;99565.27;106852;1301;19244;-85
2021/12/04 08:43:47;;;;;;;;;8.33;8.33;;;;;20.74;48.03;99566.36;106832;1305;19097;-85
2021/12/04 08:46:20;;;;;;;;;7.00;6.33;;;;;20.75;47.79;99565.87;107203;1309;18692;-83
2021/12/04 08:48:49;;;;;;;;;7.33;6.00;;;;;20.75;47.81;99571.45;107160;1304;19463;-84
2021/12/04 08:51:18;;;;;;;;;5.00;5.00;;;;;20.72;47.75;99567.19;106810;1304;19542;-85
2021/12/04 08:53:50;;;;;;;;;8.00;6.00;;;;;20.73;48.06;99571.84;107313;1301;22986;-84
2021/12/04 08:56:19;;;;;;;;;8.00;6.00;;;;;20.72;47.94;99574.20;107053;1307;18937;-84
2021/12/04 08:58:48;;;;;;;;;8.67;8.00;;;;;20.79;48.19;99574.80;106857;1304;18825;-84
2021/12/04 09:01:23;;;;;;;;;8.00;6.00;;;;;20.81;48.41;99578.70;106852;1306;18368;-85
2021/12/04 09:03:53;;;;;;;;;8.00;6.67;;;;;20.80;48.45;99579.62;106847;1305;19189;-84
2021/12/04 09:06:22;;;;;;;;;8.67;7.33;;;;;20.82;48.62;99582.64;106932;1301;20233;-85
2021/12/04 09:08:50;;;;;;;;;6.00;6.00;;;;;20.83;48.79;99580.73;106822;1301;18798;-83
2021/12/04 09:11:22;;;;;;;;;8.33;8.00;;;;;20.91;49.03;99586.35;106847;1301;18875;-84
2021/12/04 09:13:51;;;;;;;;;6.00;6.00;;;;;20.95;49.12;99584.95;106867;1301;19323;-85
2021/12/04 09:16:19;;;;;;;;;7.33;7.33;;;;;20.96;49.38;99588.96;106973;1305;18362;-85
2021/12/04 09:18:47;;;;;;;;;9.00;8.33;;;;;20.97;49.37;99588.30;106856;1301;19034;-83
2021/12/04 09:21:16;;;;;;;;;10.00;8.33;;;;;20.97;49.72;99586.42;106761;1301;19380;-83
2021/12/04 09:23:51;;;;;;;;;10.00;9.00;;;;;21.01;50.01;99588.60;106709;1301;18552;-86
2021/12/04 09:26:36;;;;;;;;;8.00;7.33;;;;;21.01;50.13;99590.45;106913;1301;19027;-85
2021/12/04 09:29:11;;;;;;;;;8.33;7.67;;;;;21.03;50.18;99592.91;106862;1304;18937;-86
2021/12/04 09:32:03;;;;;;;;;74.33;57.67;;;;;21.04;50.27;99595.14;106899;1301;19032;-85
2021/12/04 09:59:07;;;;;;;;;342.50;246.25;;;;;21.09;50.07;99598.50;106746;1308;18895;-86
2021/12/04 10:00:09;;;;;;;;;118.00;88.67;;;;;21.24;50.09;99584.12;105960;1310;18948;-85
2021/12/04 10:03:10;;;;;;;;;110.00;80.67;;;;;21.23;51.08;99579.34;105976;1309;19283;-83
2021/12/04 10:17:16;;;;;;;;;85.00;61.50;;;;;21.18;50.86;99567.84;105562;1313;22208;-84
2021/12/04 10:20:13;;;;;;;;;78.00;61.00;;;;;21.07;50.46;99570.88;105503;1318;19365;-84
2021/12/04 10:22:44;;;;;;;;;77.67;57.00;;;;;21.04;50.04;99583.63;105609;1312;21751;-84
2021/12/04 10:33:40;;;;;;;;;66.50;52.00;;;;;20.88;48.72;99575.71;106161;1307;18993;-86
2021/12/04 10:36:09;;;;;;;;;63.00;48.00;;;;;20.88;48.55;99572.04;106013;1315;18964;-86
2021/12/04 10:38:42;;;;;;;;;67.67;49.00;;;;;20.87;48.62;99569.67;106011;1309;18622;-86
2021/12/04 10:41:11;;;;;;;;;61.00;45.67;;;;;20.85;48.62;99572.27;105958;1309;18960;-86
2021/12/04 10:43:40;;;;;;;;;60.67;47.67;;;;;20.84;48.66;99569.54;106075;1307;18979;-86
2021/12/04 10:46:13;;;;;;;;;65.33;47.33;;;;;20.84;48.67;99565.94;105989;1307;18488;-86
2021/12/04 10:48:48;;;;;;;;;58.50;45.50;;;;;20.84;48.73;99562.66;106083;1307;22210;-85
2021/12/04 10:51:28;;;;;;;;;59.00;44.33;;;;;20.84;48.50;99565.39;105952;1307;18886;-85
2021/12/04 10:54:03;;;;;;;;;52.50;45.00;;;;;20.83;48.44;99564.48;106336;1301;18491;-85
2021/12/04 10:56:49;;;;;;;;;57.33;44.00;;;;;20.83;48.41;99561.20;106545;1305;19047;-86
2021/12/04 10:59:39;;;;;;;;;60.67;47.00;;;;;20.81;48.52;99559.77;106797;1304;19260;-85
2021/12/04 11:02:42;;;;;;;;;46.33;41.00;;;;;20.81;48.37;99560.10;106671;1306;18572;-85
2021/12/04 11:05:36;;;;;;;;;44.67;41.00;;;;;20.81;48.32;99557.63;106748;1301;18874;-85
2021/12/04 11:19:59;;;;;;;;;44.67;38.00;;;;;20.77;48.24;99551.17;106254;1312;18488;-85
2021/12/04 11:22:33;;;;;;;;;49.33;39.67;;;;;20.78;48.26;99552.38;106249;1307;19817;-85
2021/12/04 11:25:31;;;;;;;;;45.33;37.67;;;;;20.78;47.98;99548.61;106334;1310;19161;-85
2021/12/04 11:39:41;;;;;;;;;38.00;35.00;;;;;20.78;47.92;99539.66;105693;1316;19323;-85
2021/12/04 11:42:18;;;;;;;;;34.00;33.00;;;;;20.77;47.78;99534.38;105598;1311;19720;-84
2021/12/04 11:44:50;;;;;;;;;38.00;36.50;;;;;20.77;47.86;99534.84;105975;1313;18615;-85
2021/12/04 11:47:21;;;;;;;;;45.00;36.00;;;;;20.74;47.61;99524.44;105670;1312;21366;-86
2021/12/04 11:49:49;;;;;;;;;41.33;36.33;;;;;20.77;47.62;99528.02;105713;1314;18991;-85
2021/12/04 11:52:19;;;;;;;;;40.33;35.33;;;;;20.77;47.74;99529.77;105590;1313;18926;-85
2021/12/04 11:54:46;;;;;;;;;37.33;33.33;;;;;20.78;47.74;99533.16;105905;1315;19130;-84
2021/12/04 11:57:14;;;;;;;;;39.00;30.67;;;;;20.77;47.62;99535.92;106049;1309;20021;-85
2021/12/04 11:59:43;;;;;;;;;35.50;31.00;;;;;20.76;47.65;99534.33;106054;1310;18427;-86
2021/12/04 12:02:11;;;;;;;;;34.33;31.00;;;;;20.76;47.55;99535.21;106113;1309;20646;-86
2021/12/04 12:04:40;;;;;;;;;36.50;30.50;;;;;20.74;47.65;99530.94;106057;1313;19267;-85
2021/12/04 12:07:09;;;;;;;;;39.50;32.50;;;;;20.76;47.61;99533.41;105911;1313;18466;-86
2021/12/04 12:09:39;;;;;;;;;43.50;35.00;;;;;20.74;47.38;99534.75;106058;1309;19196;-85
2021/12/04 12:12:10;;;;;;;;;34.67;30.67;;;;;20.75;47.48;99536.80;106199;1309;18921;-86
2021/12/04 12:14:40;;;;;;;;;37.00;30.67;;;;;20.75;47.47;99539.65;106798;1306;22082;-86
2021/12/04 12:17:21;;;;;;;;;36.00;31.33;;;;;20.72;47.36;99534.44;106799;1309;19571;-85
2021/12/04 12:20:26;;;;;;;;;32.33;30.00;;;;;20.73;47.50;99539.55;106793;1305;19483;-85
2021/12/04 12:22:57;;;;;;;;;27.00;27.00;;;;;20.73;47.29;99535.41;106858;1309;18466;-85
2021/12/04 12:25:29;;;;;;;;;32.00;30.00;;;;;20.74;47.37;99533.09;106899;1304;20938;-85
2021/12/04 12:31:46;;;;;;;;;31.67;26.33;;;;;20.74;47.33;99531.55;106946;1307;18878;-85
2021/12/04 12:33:36;;;;;;;;;30.33;25.33;;;;;20.71;47.22;99521.73;106924;1304;19135;-85
2021/12/04 12:36:03;;;;;;;;;30.00;27.33;;;;;20.73;47.12;99525.05;107058;1306;19210;-86
2021/12/04 12:38:31;;;;;;;;;36.33;31.00;;;;;20.73;47.14;99524.02;106907;1304;22258;-86
2021/12/04 12:40:59;;;;;;;;;35.00;27.67;;;;;20.74;47.12;99528.33;106945;1304;19344;-85
2021/12/04 12:43:27;;;;;;;;;32.67;31.00;;;;;20.74;47.02;99528.08;107147;1304;20593;-85
2021/12/04 12:45:55;;;;;;;;;30.00;27.00;;;;;20.73;47.02;99529.20;107377;1304;18729;-85
2021/12/04 12:48:24;;;;;;;;;27.00;25.00;;;;;20.74;47.13;99528.33;107243;1309;19305;-86
2021/12/04 12:50:54;;;;;;;;;30.67;29.00;;;;;20.75;47.12;99526.83;107042;1305;19104;-86
2021/12/04 12:53:23;;;;;;;;;27.00;23.67;;;;;20.73;47.13;99520.33;106943;1309;18501;-85
2021/12/04 12:55:53;;;;;;;;;31.50;23.50;;;;;20.74;47.09;99521.46;106942;1305;20635;-85
2021/12/04 12:58:21;;;;;;;;;27.00;24.00;;;;;20.75;47.05;99522.39;106887;1305;19100;-85
2021/12/04 13:11:51;;;;;;;;;30.00;24.67;;;;;20.74;47.01;99516.94;106672;1305;18906;-87
2021/12/04 13:14:20;;;;;;;;;27.50;23.00;;;;;20.73;46.83;99515.97;106467;1304;19328;-85
2021/12/04 13:16:49;;;;;;;;;29.00;25.67;;;;;20.73;46.88;99516.46;106618;1304;18407;-86
2021/12/04 13:19:19;;;;;;;;;25.33;24.00;;;;;20.74;46.88;99518.35;106553;1309;21038;-87
2021/12/04 13:21:51;;;;;;;;;23.00;21.00;;;;;20.74;46.78;99523.01;106613;1303;18958;-86
2021/12/04 13:24:20;;;;;;;;;30.00;24.00;;;;;20.71;46.91;99522.16;106677;1303;19236;-85
2021/12/04 13:26:49;;;;;;;;;30.00;27.00;;;;;20.74;46.93;99520.07;106658;1305;19256;-86
2021/12/04 13:29:19;;;;;;;;;25.67;24.33;;;;;20.73;46.83;99518.14;106656;1304;21635;-85
2021/12/04 13:31:48;;;;;;;;;28.00;24.00;;;;;20.72;46.99;99523.77;106634;1304;18524;-84
2021/12/04 13:34:17;;;;;;;;;24.67;23.33;;;;;20.71;46.89;99521.16;106602;1305;19474;-86
2021/12/04 13:36:47;;;;;;;;;24.00;20.00;;;;;20.72;46.88;99521.38;106390;1305;18979;-86
2021/12/04 13:39:15;;;;;;;;;23.00;23.00;;;;;20.71;46.78;99524.02;106630;1307;18460;-85
2021/12/04 13:41:43;;;;;;;;;26.00;22.67;;;;;20.71;46.86;99521.16;106642;1306;18859;-85
2021/12/04 13:44:11;;;;;;;;;27.00;24.00;;;;;20.70;46.75;99517.89;106641;1304;22237;-84
2021/12/04 13:46:39;;;;;;;;;27.00;24.00;;;;;20.69;46.82;99518.86;106579;1305;22235;-85